T Rex — V7KA2 — position and weather

sailwx.info

Track history (hours):
 
Tides and Currents Weather Stations Pressure Air Temp Water Temp Dewpoint Dewpoint Depression Visibility Wind Speed Wind Dir Waves Ship Positions

T Rex

Last reported at 2018-Feb-21 20:38 UTC. Time now 2018-Feb-22 06:58 UTC.
Position N 40°34' W 009°57'.

Length 183 m; draft 11.7 m.

Type: Ship (hazmat cat A). MMSI: 538002594.

Date/timePositionNaut miles runAvg speedWind from/ knotsBaromVisibWave heightAir tempDewpointWater temp
2018-Feb-21 20:38N 40°34' W 009°57'512.5
2018-Feb-21 20:16N 40°29' W 009°57'912.3
2018-Feb-21 19:30N 40°20' W 009°57'2112.1
2018-Feb-21 17:44N 39°58' W 009°57'312.0
2018-Feb-21 17:29N 39°55' W 009°58'611.8
2018-Feb-21 17:00N 39°49' W 009°57'711.9
2018-Feb-21 16:24N 39°42' W 009°57'511.9
2018-Feb-21 16:00N 39°38' W 009°57'811.9
2018-Feb-21 15:20N 39°30' W 009°57'411.9
2018-Feb-21 14:59N 39°25' W 009°57'612.3
2018-Feb-21 14:31N 39°20' W 009°57'612.3
2018-Feb-21 14:00N 39°13' W 009°57'612.2
2018-Feb-21 13:30N 39°07' W 009°57'612.1
2018-Feb-21 13:00N 39°01' W 009°57'612.3
2018-Feb-21 12:31N 38°55' W 009°57'612.4
2018-Feb-21 12:01N 38°49' W 009°57'612.3
2018-Feb-21 11:30N 38°43' W 009°57'612.0
2018-Feb-21 11:00N 38°37' W 009°55'612.1
2018-Feb-21 10:30N 38°31' W 009°54'612.1
2018-Feb-21 10:00N 38°25' W 009°52'611.9
2018-Feb-21 09:30N 38°19' W 009°50'612.4
2018-Feb-21 09:00N 38°13' W 009°48'612.3
2018-Feb-21 08:28N 38°07' W 009°47'612.4
2018-Feb-21 08:01N 38°01' W 009°45'712.3
2018-Feb-21 07:27N 37°55' W 009°43'512.2
2018-Feb-21 07:00N 37°49' W 009°41'612.4
2018-Feb-21 06:30N 37°43' W 009°40'612.4
2018-Feb-21 06:01N 37°37' W 009°38'612.6
2018-Feb-21 05:30N 37°31' W 009°36'612.5
2018-Feb-21 05:00N 37°25' W 009°34'612.4
2018-Feb-21 04:31N 37°19' W 009°33'712.6
2018-Feb-21 03:59N 37°12' W 009°31'612.6
2018-Feb-21 03:31N 37°07' W 009°29'612.8
2018-Feb-21 03:00N 37°00' W 009°27'2312.0
2018-Feb-21 01:08N 36°41' W 009°13'211.9
2018-Feb-21 00:59N 36°40' W 009°11'712.3
2018-Feb-21 00:27N 36°39' W 009°03'612.1
2018-Feb-20 23:59N 36°38' W 008°57'612.1
2018-Feb-20 23:30N 36°37' W 008°49'812.4
2018-Feb-20 22:51N 36°36' W 008°39'412.6
2018-Feb-20 22:31N 36°35' W 008°34'2312.6
2018-Feb-20 20:42N 36°28' W 008°08'212.7
2018-Feb-20 20:31N 36°27' W 008°05'712.6
2018-Feb-20 19:58N 36°25' W 007°56'612.4
2018-Feb-20 19:30N 36°23' W 007°50'612.7
2018-Feb-20 19:01N 36°21' W 007°42'11112.6
2018-Feb-20 10:12N 35°60' W 005°28'2 9.7
2018-Feb-20 10:00N 36°00' W 005°26'5 9.9
2018-Feb-20 09:30N 36°01' W 005°20'  
2018-Feb-17 06:00N 35°41' E 013°59'713.4
2018-Feb-17 05:30N 35°36' E 014°06'712.9
2018-Feb-17 04:58N 35°34' E 014°14'613.1
2018-Feb-17 04:30N 35°33' E 014°21'813.2
2018-Feb-17 03:55N 35°31' E 014°30'  
Track history (hours):
 
Tides and Currents Weather Stations Pressure Air Temp Water Temp Dewpoint Dewpoint Depression Visibility Wind Speed Wind Dir Waves Ship Positions

T Rex

Last reported at 2018-Feb-21 20:38 UTC. Time now 2018-Feb-22 06:58 UTC.
Position N 40°34' W 009°57'.

Length 183 m; draft 11.7 m.

Type: Ship (hazmat cat A). MMSI: 538002594.

Date/timePositionNaut miles runAvg speedWind from/ knotsBaromVisibWave heightAir tempDewpointWater temp
2018-Feb-21 20:38N 40°34' W 009°57'512.5
2018-Feb-21 20:16N 40°29' W 009°57'912.3
2018-Feb-21 19:30N 40°20' W 009°57'2112.1
2018-Feb-21 17:44N 39°58' W 009°57'312.0
2018-Feb-21 17:29N 39°55' W 009°58'611.8
2018-Feb-21 17:00N 39°49' W 009°57'711.9
2018-Feb-21 16:24N 39°42' W 009°57'511.9
2018-Feb-21 16:00N 39°38' W 009°57'811.9
2018-Feb-21 15:20N 39°30' W 009°57'411.9
2018-Feb-21 14:59N 39°25' W 009°57'612.3
2018-Feb-21 14:31N 39°20' W 009°57'612.3
2018-Feb-21 14:00N 39°13' W 009°57'612.2
2018-Feb-21 13:30N 39°07' W 009°57'612.1
2018-Feb-21 13:00N 39°01' W 009°57'612.3
2018-Feb-21 12:31N 38°55' W 009°57'612.4
2018-Feb-21 12:01N 38°49' W 009°57'612.3
2018-Feb-21 11:30N 38°43' W 009°57'612.0
2018-Feb-21 11:00N 38°37' W 009°55'612.1
2018-Feb-21 10:30N 38°31' W 009°54'612.1
2018-Feb-21 10:00N 38°25' W 009°52'611.9
2018-Feb-21 09:30N 38°19' W 009°50'612.4
2018-Feb-21 09:00N 38°13' W 009°48'612.3
2018-Feb-21 08:28N 38°07' W 009°47'612.4
2018-Feb-21 08:01N 38°01' W 009°45'712.3
2018-Feb-21 07:27N 37°55' W 009°43'512.2
2018-Feb-21 07:00N 37°49' W 009°41'612.4
2018-Feb-21 06:30N 37°43' W 009°40'612.4
2018-Feb-21 06:01N 37°37' W 009°38'612.6
2018-Feb-21 05:30N 37°31' W 009°36'612.5
2018-Feb-21 05:00N 37°25' W 009°34'612.4
2018-Feb-21 04:31N 37°19' W 009°33'712.6
2018-Feb-21 03:59N 37°12' W 009°31'612.6
2018-Feb-21 03:31N 37°07' W 009°29'612.8
2018-Feb-21 03:00N 37°00' W 009°27'2312.0
2018-Feb-21 01:08N 36°41' W 009°13'211.9
2018-Feb-21 00:59N 36°40' W 009°11'712.3
2018-Feb-21 00:27N 36°39' W 009°03'612.1
2018-Feb-20 23:59N 36°38' W 008°57'612.1
2018-Feb-20 23:30N 36°37' W 008°49'812.4
2018-Feb-20 22:51N 36°36' W 008°39'412.6
2018-Feb-20 22:31N 36°35' W 008°34'2312.6
2018-Feb-20 20:42N 36°28' W 008°08'212.7
2018-Feb-20 20:31N 36°27' W 008°05'712.6
2018-Feb-20 19:58N 36°25' W 007°56'612.4
2018-Feb-20 19:30N 36°23' W 007°50'612.7
2018-Feb-20 19:01N 36°21' W 007°42'11112.6
2018-Feb-20 10:12N 35°60' W 005°28'2 9.7
2018-Feb-20 10:00N 36°00' W 005°26'5 9.9
2018-Feb-20 09:30N 36°01' W 005°20'  
2018-Feb-17 06:00N 35°41' E 013°59'713.4
2018-Feb-17 05:30N 35°36' E 014°06'712.9
2018-Feb-17 04:58N 35°34' E 014°14'613.1
2018-Feb-17 04:30N 35°33' E 014°21'813.2
2018-Feb-17 03:55N 35°31' E 014°30'  

Dump ship's entire track history